CLR2 weather

Lake Rosseau/John's Bay Seaplane Base
Lake Rosseau, Ontario, Canada

Public forecast

Using degrees Celsius for public forecast. Weather courtesy of forecast.io.

METAR (pilot weather report)

Closest report is Muskoka Airport, 17.1 nm (31.7 km) SE. Retrieved 2019/09/22 07:00 UTC (9 minutes ago):

CYQA 220700Z AUTO 16006KT 9SM FEW065 SCT077 BKN098 OVC120 19/17 A3002 RMK SLP163 DENSITY ALT 1500FT

TAF (pilot weather forecast)

Forecast is more than 6 hours old.

Closest forecast is Muskoka Airport, 17.1 nm (31.7 km) SE. Retrieved 2019/09/21 20:00 UTC (11 hours ago):

TAF CYQA 211938Z 2120/2202 18007KT P6SM SCT040 TEMPO 2120/2202 BKN040 RMK FCST BASED ON AUTO OBS. NXT FCST WILL BE ISSUED AT 221145Z